createdAt,value
2019-05-10T00:00:29.468Z,2.50
2019-05-10T00:03:17.844Z,3.03
2019-05-10T00:06:07.245Z,2.30
2019-05-10T00:08:45.748Z,2.70
2019-05-10T00:11:40.711Z,2.80
2019-05-10T00:14:46.540Z,3.00
2019-05-10T00:17:24.637Z,2.50
2019-05-10T00:19:57.618Z,2.90
2019-05-10T00:22:28.396Z,2.70
2019-05-10T00:25:04.243Z,2.70
2019-05-10T00:27:37.282Z,2.70
2019-05-10T00:30:09.710Z,2.60
2019-05-10T00:32:40.390Z,2.90
2019-05-10T00:35:11.040Z,2.50
2019-05-10T00:37:46.346Z,3.20
2019-05-10T00:40:18.436Z,3.03
2019-05-10T00:42:51.059Z,2.70
2019-05-10T00:45:21.645Z,2.80
2019-05-10T00:47:55.364Z,2.53
2019-05-10T00:50:25.955Z,3.13
2019-05-10T00:52:57.734Z,2.23
2019-05-10T00:55:29.605Z,2.20
2019-05-10T00:58:00.461Z,2.70
2019-05-10T01:00:34.523Z,2.67
2019-05-10T01:03:05.197Z,2.67
2019-05-10T01:05:36.999Z,2.73
2019-05-10T01:08:08.274Z,2.93
2019-05-10T01:10:38.943Z,2.80
2019-05-10T01:13:16.725Z,3.40
2019-05-10T01:15:48.642Z,3.00
2019-05-10T01:18:21.449Z,2.73
2019-05-10T01:20:55.422Z,2.97
2019-05-10T01:23:26.175Z,3.30
2019-05-10T01:26:00.397Z,3.10
2019-05-10T01:28:31.363Z,2.77
2019-05-10T01:31:01.987Z,2.73
2019-05-10T01:33:39.255Z,2.60
2019-05-10T01:36:09.855Z,2.53
2019-05-10T01:38:42.484Z,2.87
2019-05-10T01:41:16.445Z,3.33
2019-05-10T01:43:47.222Z,2.60
2019-05-10T01:46:17.891Z,3.00
2019-05-10T01:48:49.471Z,3.30
2019-05-10T01:51:21.419Z,2.87
2019-05-10T01:53:52.211Z,3.30
2019-05-10T01:56:27.411Z,3.13
2019-05-10T01:58:58.156Z,2.70
2019-05-10T02:01:28.915Z,3.00
2019-05-10T02:04:00.910Z,2.60
2019-05-10T02:06:31.610Z,2.33
2019-05-10T02:09:04.706Z,2.37
2019-05-10T02:11:36.317Z,3.00
2019-05-10T02:14:07.064Z,3.20
2019-05-10T02:16:40.922Z,3.30
2019-05-10T02:19:17.653Z,2.93
2019-05-10T02:21:48.248Z,2.57
2019-05-10T02:24:19.846Z,3.70
2019-05-10T02:26:51.741Z,2.93
2019-05-10T02:29:24.632Z,2.90
2019-05-10T02:31:56.567Z,2.50
2019-05-10T02:34:27.335Z,2.80
2019-05-10T02:36:57.911Z,2.40
2019-05-10T02:39:29.630Z,2.73
2019-05-10T02:42:01.673Z,2.83
2019-05-10T02:44:32.327Z,2.60
2019-05-10T02:47:05.737Z,2.97
2019-05-10T02:49:36.806Z,2.80
2019-05-10T02:52:11.850Z,3.00
2019-05-10T02:54:44.309Z,2.83
2019-05-10T02:57:18.421Z,3.30
2019-05-10T02:59:50.605Z,2.63
2019-05-10T03:02:29.520Z,3.33
2019-05-10T03:05:03.123Z,3.07
2019-05-10T03:07:41.119Z,3.10
2019-05-10T03:10:20.894Z,3.20
2019-05-10T03:12:57.959Z,2.70
2019-05-10T03:15:38.402Z,3.13
2019-05-10T03:18:14.518Z,3.10
2019-05-10T03:20:53.052Z,3.00
2019-05-10T03:23:24.414Z,2.90
2019-05-10T03:25:56.190Z,3.40
2019-05-10T03:28:26.931Z,4.30
2019-05-10T03:30:57.642Z,3.00
2019-05-10T03:33:34.493Z,3.37
2019-05-10T03:36:06.494Z,3.27
2019-05-10T03:38:38.608Z,3.43
2019-05-10T03:41:09.607Z,3.87
2019-05-10T03:43:42.148Z,3.50
2019-05-10T03:46:14.771Z,3.43
2019-05-10T03:48:46.715Z,5.40
2019-05-10T03:51:18.673Z,3.17
2019-05-10T03:53:51.421Z,4.00
2019-05-10T03:56:30.030Z,4.20
2019-05-10T03:59:02.709Z,4.23
2019-05-10T04:01:41.724Z,4.03
2019-05-10T04:04:12.771Z,3.40
2019-05-10T04:06:43.619Z,3.87
2019-05-10T04:09:15.462Z,3.83
2019-05-10T04:11:58.560Z,4.20
2019-05-10T04:14:30.549Z,4.50
2019-05-10T04:17:03.662Z,5.10
2019-05-10T04:19:34.449Z,3.70
2019-05-10T04:22:13.070Z,4.30
2019-05-10T04:24:43.736Z,3.50
2019-05-10T04:27:30.530Z,4.07
2019-05-10T04:29:49.340Z,5.30
2019-05-10T04:32:19.989Z,4.80
2019-05-10T04:34:52.102Z,4.27
2019-05-10T04:37:23.101Z,4.20
2019-05-10T04:39:55.151Z,5.77
2019-05-10T04:42:25.767Z,5.00
2019-05-10T04:44:57.400Z,6.03
2019-05-10T04:47:28.034Z,4.40
2019-05-10T04:49:58.937Z,4.87
2019-05-10T04:52:29.506Z,4.87
2019-05-10T04:55:01.152Z,5.33
2019-05-10T04:57:47.943Z,5.50
2019-05-10T05:00:04.629Z,5.50
2019-05-10T05:02:35.155Z,4.90
2019-05-10T05:05:06.867Z,5.40
2019-05-10T05:07:38.910Z,5.60
2019-05-10T05:10:10.297Z,6.23
2019-05-10T05:12:40.830Z,6.60
2019-05-10T05:15:12.393Z,6.17
2019-05-10T05:17:42.936Z,5.90
2019-05-10T05:20:15.006Z,7.30
2019-05-10T05:22:45.555Z,8.30
2019-05-10T05:25:16.197Z,8.50
2019-05-10T05:27:46.756Z,6.40
2019-05-10T05:30:19.648Z,7.10
2019-05-10T05:32:50.245Z,8.07
2019-05-10T05:35:20.877Z,7.60
2019-05-10T05:37:52.535Z,7.27
2019-05-10T05:40:23.131Z,8.47
2019-05-10T05:42:53.712Z,8.43
2019-05-10T05:45:28.232Z,8.00
2019-05-10T05:47:58.965Z,6.97
2019-05-10T05:50:29.614Z,6.90
2019-05-10T05:53:00.263Z,7.67
2019-05-10T05:55:32.187Z,7.87
2019-05-10T05:58:04.699Z,6.70
2019-05-10T06:00:44.395Z,7.03
2019-05-10T06:03:07.983Z,7.17
2019-05-10T06:05:38.648Z,6.67
2019-05-10T06:08:22.713Z,5.20
2019-05-10T06:10:44.045Z,5.77
2019-05-10T06:13:14.999Z,4.60
2019-05-10T06:15:45.620Z,4.37
2019-05-10T06:18:16.982Z,5.20
2019-05-10T06:20:47.611Z,4.80
2019-05-10T06:23:18.162Z,4.07
2019-05-10T06:25:48.759Z,4.47
2019-05-10T06:28:27.025Z,3.87
2019-05-10T06:30:51.634Z,4.40
2019-05-10T06:33:22.232Z,4.10
2019-05-10T06:35:52.825Z,3.27
2019-05-10T06:38:23.349Z,3.33
2019-05-10T06:40:53.992Z,3.13
2019-05-10T06:43:24.518Z,3.30
2019-05-10T06:45:55.849Z,2.70
2019-05-10T06:48:33.485Z,3.10
2019-05-10T06:51:02.834Z,2.73
2019-05-10T06:53:33.887Z,2.20
2019-05-10T06:56:04.712Z,1.90
2019-05-10T06:58:36.500Z,2.70
2019-05-10T07:01:07.642Z,2.20
2019-05-10T07:03:38.200Z,2.77
2019-05-10T07:06:08.799Z,2.03
2019-05-10T07:08:44.119Z,2.43
2019-05-10T07:11:13.551Z,2.30
2019-05-10T07:13:47.039Z,2.10
2019-05-10T07:16:24.002Z,2.40
2019-05-10T07:18:48.741Z,2.17
2019-05-10T07:21:19.391Z,2.33
2019-05-10T07:23:49.942Z,2.40
2019-05-10T07:26:24.174Z,2.10
2019-05-10T07:28:57.637Z,2.00
2019-05-10T07:31:26.443Z,2.23
2019-05-10T07:33:56.996Z,2.80
2019-05-10T07:36:30.497Z,2.03
2019-05-10T07:39:02.948Z,2.50
2019-05-10T07:41:32.307Z,1.80
2019-05-10T07:44:07.889Z,2.37
2019-05-10T07:46:40.190Z,2.30
2019-05-10T07:49:07.575Z,1.97
2019-05-10T07:51:38.187Z,2.13
2019-05-10T07:54:08.726Z,2.50
2019-05-10T07:56:45.346Z,2.20
2019-05-10T07:59:16.174Z,1.80
2019-05-10T08:01:43.946Z,1.70
2019-05-10T08:04:19.754Z,1.83
2019-05-10T08:06:52.116Z,1.97
2019-05-10T08:09:21.443Z,1.87
2019-05-10T08:11:54.262Z,2.00
2019-05-10T08:14:25.660Z,1.40
2019-05-10T08:17:01.767Z,1.60
2019-05-10T08:19:32.898Z,1.60
2019-05-10T08:22:04.449Z,1.60
2019-05-10T08:24:35.444Z,1.70
2019-05-10T08:27:11.460Z,1.33
2019-05-10T08:29:38.553Z,1.67
2019-05-10T08:32:09.131Z,1.67
2019-05-10T08:34:50.686Z,1.73
2019-05-10T08:37:12.810Z,1.40
2019-05-10T08:39:47.879Z,1.83
2019-05-10T08:42:32.617Z,1.47
2019-05-10T08:44:53.683Z,1.50
2019-05-10T08:47:26.756Z,1.80
2019-05-10T08:50:10.718Z,1.50
2019-05-10T08:52:30.887Z,1.30
2019-05-10T08:54:57.562Z,1.73
2019-05-10T08:57:28.157Z,1.90
2019-05-10T09:00:06.514Z,1.70
2019-05-10T09:02:32.877Z,2.07
2019-05-10T09:05:03.665Z,1.50
2019-05-10T09:07:38.880Z,1.80
2019-05-10T09:10:09.550Z,1.70
2019-05-10T09:12:41.747Z,1.57
2019-05-10T09:15:13.699Z,1.70
2019-05-10T09:17:44.768Z,1.30
2019-05-10T09:20:26.356Z,1.73
2019-05-10T09:22:48.287Z,1.47
2019-05-10T09:25:20.244Z,1.90
2019-05-10T09:27:53.165Z,1.20
2019-05-10T09:30:35.824Z,1.70
2019-05-10T09:33:11.407Z,1.50
2019-05-10T09:35:43.683Z,1.50
2019-05-10T09:38:12.510Z,1.40
2019-05-10T09:40:51.260Z,1.33
2019-05-10T09:43:15.794Z,1.60
2019-05-10T09:45:46.318Z,2.40
2019-05-10T09:48:16.979Z,1.30
2019-05-10T09:50:47.520Z,1.53
2019-05-10T09:53:23.669Z,1.50
2019-05-10T09:55:55.266Z,1.70
2019-05-10T09:58:22.827Z,1.30
2019-05-10T10:01:09.425Z,1.43
2019-05-10T10:03:29.595Z,1.43
2019-05-10T10:06:05.586Z,1.47
2019-05-10T10:08:30.388Z,1.30
2019-05-10T10:11:14.079Z,1.40
2019-05-10T10:13:39.844Z,1.50
2019-05-10T10:16:10.334Z,1.77
2019-05-10T10:18:40.726Z,1.30
2019-05-10T10:21:13.268Z,1.67
2019-05-10T10:23:43.692Z,1.40
2019-05-10T10:26:18.813Z,1.20
2019-05-10T10:28:49.573Z,1.63
2019-05-10T10:31:28.855Z,1.73
2019-05-10T10:33:58.014Z,1.37
2019-05-10T10:36:23.555Z,1.20
2019-05-10T10:38:54.186Z,1.27
2019-05-10T10:41:30.939Z,1.57
2019-05-10T10:43:59.894Z,1.40
2019-05-10T10:46:30.406Z,1.43
2019-05-10T10:49:01.057Z,1.50
2019-05-10T10:51:34.071Z,1.70
2019-05-10T10:54:03.970Z,1.23
2019-05-10T10:56:37.452Z,1.60
2019-05-10T10:59:08.196Z,1.67
2019-05-10T11:01:49.503Z,1.40
2019-05-10T11:04:11.032Z,1.67
2019-05-10T11:06:41.617Z,1.50
2019-05-10T11:09:12.237Z,1.80
2019-05-10T11:11:44.806Z,1.70
2019-05-10T11:14:15.158Z,1.53
2019-05-10T11:16:46.751Z,1.80
2019-05-10T11:19:20.047Z,1.50
2019-05-10T11:21:51.564Z,1.50
2019-05-10T11:24:22.898Z,1.23
2019-05-10T11:26:53.661Z,1.60
2019-05-10T11:29:27.915Z,1.50
2019-05-10T11:32:12.246Z,1.67
2019-05-10T11:34:37.504Z,1.20
2019-05-10T11:37:02.496Z,1.70
2019-05-10T11:39:40.652Z,1.40
2019-05-10T11:42:07.599Z,1.60
2019-05-10T11:44:41.507Z,1.30
2019-05-10T11:47:23.459Z,1.20
2019-05-10T11:49:42.963Z,1.10
2019-05-10T11:52:13.581Z,1.30
2019-05-10T11:54:44.204Z,1.13
2019-05-10T11:57:14.768Z,1.30
2019-05-10T11:59:45.660Z,1.23
2019-05-10T12:04:52.437Z,1.30
2019-05-10T12:07:27.468Z,1.40
2019-05-10T12:10:03.338Z,1.00
2019-05-10T12:15:04.047Z,1.30
2019-05-10T12:17:31.541Z,1.10
2019-05-10T12:20:02.706Z,1.20
2019-05-10T12:25:35.080Z,1.10
2019-05-10T12:26:16.312Z,1.40
2019-05-10T12:26:47.875Z,1.20
2019-05-10T12:26:49.399Z,1.20
2019-05-10T12:27:46.935Z,2.13
2019-05-10T12:30:13.871Z,1.03
2019-05-10T12:32:55.574Z,1.53
2019-05-10T12:35:16.638Z,1.20
2019-05-10T12:37:51.399Z,1.63
2019-05-10T12:40:19.584Z,1.20
2019-05-10T12:42:50.147Z,1.20
2019-05-10T12:45:23.280Z,1.13
2019-05-10T12:47:53.274Z,1.40
2019-05-10T12:50:25.778Z,1.33
2019-05-10T12:53:13.112Z,1.20
2019-05-10T12:55:28.712Z,1.20
2019-05-10T12:57:59.237Z,1.20
2019-05-10T13:00:29.936Z,1.43
2019-05-10T13:03:12.346Z,1.20
2019-05-10T13:05:51.084Z,1.00
2019-05-10T13:08:07.744Z,1.30
2019-05-10T13:10:43.386Z,1.10
2019-05-10T13:13:10.737Z,1.23
2019-05-10T13:15:41.396Z,1.00
2019-05-10T13:18:11.940Z,1.13
2019-05-10T13:20:45.326Z,1.17
2019-05-10T13:23:16.139Z,1.27
2019-05-10T13:25:48.931Z,1.10
2019-05-10T13:28:19.525Z,1.30
2019-05-10T13:30:50.155Z,1.10
2019-05-10T13:33:29.118Z,1.40
2019-05-10T13:35:56.373Z,1.07
2019-05-10T13:38:26.464Z,1.00
2019-05-10T13:40:59.640Z,1.10
2019-05-10T13:43:30.179Z,1.00
2019-05-10T13:46:00.884Z,1.17
2019-05-10T13:48:31.466Z,1.07
2019-05-10T13:51:02.226Z,1.00
2019-05-10T13:53:32.800Z,1.10
2019-05-10T13:56:03.405Z,1.20
2019-05-10T13:58:33.974Z,1.00
2019-05-10T14:01:06.613Z,1.10
2019-05-10T14:03:44.417Z,0.90
2019-05-10T14:06:09.266Z,0.97
2019-05-10T14:08:42.810Z,1.20
2019-05-10T14:11:12.151Z,1.10
2019-05-10T14:13:43.291Z,1.10
2019-05-10T14:16:19.888Z,1.20
2019-05-10T14:18:46.308Z,1.10
2019-05-10T14:21:16.932Z,1.13
2019-05-10T14:23:47.518Z,1.10
2019-05-10T14:26:18.430Z,1.10
2019-05-10T14:28:53.135Z,1.00
2019-05-10T14:31:23.507Z,1.10
2019-05-10T14:34:14.809Z,1.00
2019-05-10T14:36:26.434Z,1.70
2019-05-10T14:38:56.993Z,1.10
2019-05-10T14:41:27.593Z,1.00
2019-05-10T14:43:58.196Z,1.27
2019-05-10T14:46:28.811Z,1.20
2019-05-10T14:49:08.751Z,1.13
2019-05-10T14:54:06.495Z,1.20
2019-05-10T14:56:36.509Z,1.40
2019-05-10T14:59:07.098Z,1.00
2019-05-10T15:01:43.022Z,1.10
2019-05-10T15:04:10.081Z,1.00
2019-05-10T15:06:40.692Z,1.20
2019-05-10T15:09:20.468Z,1.10
2019-05-10T15:11:43.669Z,1.17
2019-05-10T15:14:14.236Z,1.20
2019-05-10T15:16:44.811Z,1.10
2019-05-10T15:19:15.425Z,1.30
2019-05-10T15:21:46.075Z,1.30
2019-05-10T15:24:16.678Z,1.37
2019-05-10T15:26:47.244Z,1.30
2019-05-10T15:29:22.499Z,1.03
2019-05-10T15:31:50.212Z,1.07
2019-05-10T15:34:20.817Z,1.20
2019-05-10T15:36:51.426Z,1.17
2019-05-10T15:39:22.908Z,1.30
2019-05-10T15:41:59.252Z,1.20
2019-05-10T15:44:31.263Z,1.30
2019-05-10T15:47:02.757Z,8.90
2019-05-10T15:49:33.391Z,1.50
2019-05-10T15:52:17.439Z,1.07
2019-05-10T15:54:44.656Z,1.00
2019-05-10T15:57:20.296Z,1.20
2019-05-10T15:59:56.611Z,1.10
2019-05-10T16:02:23.499Z,1.20
2019-05-10T16:04:57.598Z,1.30
2019-05-10T16:07:34.407Z,1.60
2019-05-10T16:10:05.234Z,1.00
2019-05-10T16:12:37.735Z,1.27
2019-05-10T16:15:13.874Z,1.10
2019-05-10T16:17:45.527Z,2.87
2019-05-10T16:20:17.416Z,1.90
2019-05-10T16:22:49.940Z,1.50
2019-05-10T16:25:21.750Z,1.10
2019-05-10T16:27:56.290Z,1.43
2019-05-10T16:30:28.176Z,1.13
2019-05-10T16:33:00.129Z,1.20
2019-05-10T16:35:38.411Z,1.70
2019-05-10T16:38:03.369Z,1.40
2019-05-10T16:40:33.979Z,1.00
2019-05-10T16:43:06.847Z,1.20
2019-05-10T16:45:39.095Z,1.17
2019-05-10T16:48:10.085Z,1.10
2019-05-10T16:50:41.894Z,1.50
2019-05-10T16:53:12.618Z,1.90
2019-05-10T16:55:43.346Z,1.30
2019-05-10T16:58:17.925Z,1.17
2019-05-10T17:00:53.824Z,1.30
2019-05-10T17:03:24.606Z,2.30
2019-05-10T17:05:58.856Z,1.40
2019-05-10T17:08:30.806Z,1.53
2019-05-10T17:11:09.434Z,1.27
2019-05-10T17:13:36.420Z,1.37
2019-05-10T17:16:11.506Z,1.40
2019-05-10T17:18:39.681Z,1.27
2019-05-10T17:21:12.496Z,1.17
2019-05-10T17:23:52.595Z,1.40
2019-05-10T17:26:24.498Z,1.23
2019-05-10T17:28:57.980Z,1.27
2019-05-10T17:31:30.903Z,1.40
2019-05-10T17:34:02.880Z,1.40
2019-05-10T17:36:36.894Z,1.60
2019-05-10T17:39:08.996Z,1.67
2019-05-10T17:41:44.032Z,1.73
2019-05-10T17:44:17.451Z,1.37
2019-05-10T17:46:55.379Z,1.60
2019-05-10T17:49:30.344Z,1.87
2019-05-10T17:52:02.251Z,1.53
2019-05-10T17:54:39.112Z,1.40
2019-05-10T17:57:10.656Z,1.67
2019-05-10T17:59:41.822Z,1.70
2019-05-10T18:02:15.466Z,1.37
2019-05-10T18:04:47.345Z,1.90
2019-05-10T18:07:19.319Z,2.30
2019-05-10T18:09:50.096Z,1.40
2019-05-10T18:12:26.689Z,1.80
2019-05-10T18:15:00.588Z,1.70
2019-05-10T18:17:31.196Z,2.07
2019-05-10T18:20:04.293Z,1.73
2019-05-10T18:22:42.810Z,1.97
2019-05-10T18:25:22.453Z,2.37
2019-05-10T18:27:53.522Z,2.57
2019-05-10T18:30:24.313Z,3.40
2019-05-10T18:32:54.876Z,2.87
2019-05-10T18:35:25.661Z,2.60
2019-05-10T18:37:59.515Z,2.60
2019-05-10T18:40:32.107Z,3.00
2019-05-10T18:43:07.408Z,3.03
2019-05-10T18:45:39.241Z,3.43
2019-05-10T18:48:11.360Z,3.00
2019-05-10T18:50:47.408Z,3.50
2019-05-10T18:53:19.689Z,3.53
2019-05-10T18:55:51.541Z,4.13
2019-05-10T18:58:28.794Z,4.90
2019-05-10T19:01:00.536Z,3.53
2019-05-10T19:03:35.497Z,3.90
2019-05-10T19:06:11.124Z,3.60
2019-05-10T19:08:44.183Z,3.83
2019-05-10T19:11:23.415Z,3.30
2019-05-10T19:13:55.481Z,2.10
2019-05-10T19:16:32.199Z,2.67
2019-05-10T19:19:03.676Z,1.90
2019-05-10T19:21:37.756Z,2.30
2019-05-10T19:24:18.219Z,1.97
2019-05-10T19:26:52.066Z,2.30
2019-05-10T19:29:22.865Z,2.17
2019-05-10T19:31:53.483Z,2.13
2019-05-10T19:34:30.073Z,2.27
2019-05-10T19:37:01.932Z,2.00
2019-05-10T19:39:33.930Z,2.57
2019-05-10T19:42:06.310Z,2.27
2019-05-10T19:44:40.580Z,1.70
2019-05-10T19:47:17.536Z,1.90
2019-05-10T19:49:51.795Z,2.30
2019-05-10T19:52:21.155Z,2.70
2019-05-10T19:54:51.076Z,3.07
2019-05-10T19:57:22.950Z,2.53
2019-05-10T19:59:55.837Z,2.53
2019-05-10T20:02:26.509Z,2.83
2019-05-10T20:04:59.685Z,3.00
2019-05-10T20:07:44.570Z,2.40
2019-05-10T20:10:07.355Z,2.80
2019-05-10T20:12:36.859Z,2.30
2019-05-10T20:15:07.790Z,2.27
2019-05-10T20:17:38.993Z,2.90
2019-05-10T20:20:10.111Z,2.33
2019-05-10T20:22:40.971Z,2.00
2019-05-10T20:25:12.001Z,2.37
2019-05-10T20:27:46.105Z,2.40
2019-05-10T20:30:18.256Z,2.67
2019-05-10T20:32:54.180Z,2.20
2019-05-10T20:35:26.494Z,2.60
2019-05-10T20:38:02.687Z,2.10
2019-05-10T20:40:37.386Z,2.20
2019-05-10T20:43:10.642Z,2.30
2019-05-10T20:45:42.620Z,2.13
2019-05-10T20:48:14.596Z,2.23
2019-05-10T20:50:50.799Z,2.60
2019-05-10T20:53:21.807Z,2.40
2019-05-10T20:55:55.787Z,4.33
2019-05-10T20:58:27.753Z,2.27
2019-05-10T21:00:59.691Z,2.80
2019-05-10T21:03:31.965Z,3.13
2019-05-10T21:06:03.126Z,2.50
2019-05-10T21:08:33.741Z,2.27
2019-05-10T21:11:04.792Z,2.60
2019-05-10T21:13:35.811Z,2.50
2019-05-10T21:16:14.914Z,2.30
2019-05-10T21:18:45.550Z,2.40
2019-05-10T21:21:16.234Z,2.40
2019-05-10T21:23:46.946Z,2.13
2019-05-10T21:26:17.537Z,2.87
2019-05-10T21:28:48.167Z,2.40
2019-05-10T21:31:19.166Z,2.23
2019-05-10T21:33:51.203Z,2.53
2019-05-10T21:36:24.719Z,2.10
2019-05-10T21:38:56.133Z,2.50
2019-05-10T21:41:33.109Z,2.30
2019-05-10T21:44:04.329Z,2.47
2019-05-10T21:46:34.968Z,2.40
2019-05-10T21:49:09.612Z,1.90
2019-05-10T21:51:42.377Z,2.50
2019-05-10T21:54:13.056Z,2.20
2019-05-10T21:56:44.687Z,2.00
2019-05-10T21:59:16.250Z,2.17
2019-05-10T22:01:53.179Z,2.47
2019-05-10T22:04:32.910Z,2.20
2019-05-10T22:07:03.867Z,2.97
2019-05-10T22:09:36.688Z,2.43
2019-05-10T22:12:16.012Z,3.03
2019-05-10T22:14:47.935Z,2.40
2019-05-10T22:17:18.708Z,2.70
2019-05-10T22:19:56.367Z,2.60
2019-05-10T22:22:27.175Z,2.37
2019-05-10T22:24:59.116Z,2.73
2019-05-10T22:27:34.668Z,2.37
2019-05-10T22:30:11.978Z,2.47
2019-05-10T22:32:44.430Z,2.30
2019-05-10T22:35:24.569Z,3.33
2019-05-10T22:37:55.332Z,2.80
2019-05-10T22:40:32.971Z,2.87
2019-05-10T22:43:09.488Z,2.70
2019-05-10T22:45:40.175Z,2.80
2019-05-10T22:48:10.974Z,2.60
2019-05-10T22:50:42.850Z,2.40
2019-05-10T22:53:13.448Z,2.40
2019-05-10T22:55:44.386Z,2.40
2019-05-10T22:58:16.399Z,2.33
2019-05-10T23:00:53.212Z,2.70
2019-05-10T23:03:26.389Z,3.40
2019-05-10T23:06:02.852Z,2.37
2019-05-10T23:08:35.739Z,2.30
2019-05-10T23:11:07.658Z,2.73
2019-05-10T23:13:47.382Z,2.60
2019-05-10T23:16:19.291Z,2.20
2019-05-10T23:18:49.910Z,2.80
2019-05-10T23:21:28.599Z,2.67
2019-05-10T23:24:03.574Z,2.70
2019-05-10T23:26:34.695Z,2.50
2019-05-10T23:29:08.656Z,2.70
2019-05-10T23:31:41.730Z,2.10
2019-05-10T23:34:14.627Z,2.50
2019-05-10T23:36:46.479Z,3.30
2019-05-10T23:39:39.226Z,2.73
2019-05-10T23:41:58.175Z,2.40
2019-05-10T23:44:31.130Z,2.97
2019-05-10T23:47:09.862Z,1.80
2019-05-10T23:49:40.767Z,2.83
2019-05-10T23:52:30.259Z,2.23
2019-05-10T23:55:05.016Z,2.60
2019-05-10T23:57:35.794Z,2.60
